Var ligger Quinta de Nossa Senhora da Conceição i Portugal?

 

Quinta de Nossa Senhora da Conceição ligger i regionen Santarem i Portugal!

Sök efter namnet på en stad:

Quincuyo, Quindungula, Quina, Quindós, Quindungo

Här finner du plats för Quinta de Nossa Senhora da Conceição på en karta.
För att se hur det för närvarande ser ut, nedan är några bilder av området med online webbkameror.
Du kan också hitta avståndet till de viktigaste städerna i regionen och till städer i övriga Portugal.

Alla platser i världen som heter .


Var ligger Quinta de Nossa Senhora da Conceição på kartan?




Webcams nära Quinta de Nossa Senhora da Conceição

Vasco Carão › South: Garrocheira, Benavente − Airport.


Vasco Carão › South: Garrocheira, Benavente − Airport - Dagtid
Aktuell
Vasco Carão › South: Garrocheira, Benavente − Airport - Aktuell

Abrantes › North-West: › North-West: Zona Alta (Torre).


Abrantes › North-West: › North-West: Zona Alta (Torre) - Dagtid
Aktuell
Abrantes › North-West: › North-West: Zona Alta (Torre) - Aktuell

Benavente › North-East: AIrport, METAR: BENAV 180005Z 36004KT 17/14 Q1015.


Benavente › North-East: AIrport, METAR: BENAV 180005Z 36004KT 17/14 Q1015 - Dagtid
Aktuell
Benavente › North-East: AIrport, METAR: BENAV 180005Z 36004KT 17/14 Q1015 - Aktuell

Webcams provided by webcams.travel


Avstånd

Var är Quinta de Nossa Senhora da Conceição i förhållande till andra platser?

Topp 10 städer i Santarem och avstånd från Quinta de Nossa Senhora da Conceição.

Stad#Befolkningkmmiles
Santarém129385106
Entroncamento2198872314
Tomar3191683723
Torres Novas4145262113
Samora Correia5141544729
Abrantes6136464025
Ourém7127293723
Rio Maior8120642717
Fátima9117983421
Almeirim1011556117

Topp 10 städer i Portugal och avstånd från Quinta de Nossa Senhora da Conceição.

Stad # Befolkningkmmiles
Lisbon15177987949
Porto2249630204127
Amadora31788568050
Braga4121393249155
Setúbal51171099056
Coimbra610658010163
Queluz71033988251
Funchal8980411051653
Vila Nova de Gaia970810203126
Loures10662307144



Info

Statistik och Geografi

Portugal består av 15299 städer i 20 regioner.

Regionen Santarem har 1174 städer.

Var ligger Quinta de Nossa Senhora da Conceição i Portugal?